sensor_id;sensor_type;location;lat;lon;timestamp;P1;durP1;ratioP1;P2;durP2;ratioP2
25497;SDS011;13406;53.380;7.226;2023-04-24T00:00:53;4.20;;;3.00;;
25497;SDS011;13406;53.380;7.226;2023-04-24T00:03:21;3.43;;;2.80;;
25497;SDS011;13406;53.380;7.226;2023-04-24T00:05:52;3.80;;;3.50;;
25497;SDS011;13406;53.380;7.226;2023-04-24T00:08:18;3.43;;;2.80;;
25497;SDS011;13406;53.380;7.226;2023-04-24T00:10:43;3.37;;;3.07;;
25497;SDS011;13406;53.380;7.226;2023-04-24T00:13:09;3.77;;;2.80;;
25497;SDS011;13406;53.380;7.226;2023-04-24T00:15:34;3.53;;;3.23;;
25497;SDS011;13406;53.380;7.226;2023-04-24T00:18:00;3.17;;;2.83;;
25497;SDS011;13406;53.380;7.226;2023-04-24T00:20:28;3.20;;;2.90;;
25497;SDS011;13406;53.380;7.226;2023-04-24T00:22:54;3.13;;;2.80;;
25497;SDS011;13406;53.380;7.226;2023-04-24T00:25:20;3.50;;;2.90;;
25497;SDS011;13406;53.380;7.226;2023-04-24T00:27:45;3.43;;;2.70;;
25497;SDS011;13406;53.380;7.226;2023-04-24T00:30:11;2.87;;;2.50;;
25497;SDS011;13406;53.380;7.226;2023-04-24T00:32:36;3.90;;;2.10;;
25497;SDS011;13406;53.380;7.226;2023-04-24T00:35:02;2.80;;;1.90;;
25497;SDS011;13406;53.380;7.226;2023-04-24T00:37:27;2.20;;;1.80;;
25497;SDS011;13406;53.380;7.226;2023-04-24T00:39:53;1.77;;;1.20;;
25497;SDS011;13406;53.380;7.226;2023-04-24T00:42:19;1.90;;;1.23;;
25497;SDS011;13406;53.380;7.226;2023-04-24T00:44:45;1.93;;;1.10;;
25497;SDS011;13406;53.380;7.226;2023-04-24T00:47:11;1.53;;;1.43;;
25497;SDS011;13406;53.380;7.226;2023-04-24T00:49:37;2.13;;;1.20;;
25497;SDS011;13406;53.380;7.226;2023-04-24T00:52:03;1.97;;;1.20;;
25497;SDS011;13406;53.380;7.226;2023-04-24T00:54:32;2.30;;;1.40;;
25497;SDS011;13406;53.380;7.226;2023-04-24T00:56:58;1.90;;;1.03;;
25497;SDS011;13406;53.380;7.226;2023-04-24T00:59:23;2.30;;;1.20;;
25497;SDS011;13406;53.380;7.226;2023-04-24T01:01:49;1.90;;;1.50;;
25497;SDS011;13406;53.380;7.226;2023-04-24T01:04:14;1.73;;;0.77;;
25497;SDS011;13406;53.380;7.226;2023-04-24T01:06:42;1.20;;;1.10;;
25497;SDS011;13406;53.380;7.226;2023-04-24T01:09:10;1.57;;;0.60;;
25497;SDS011;13406;53.380;7.226;2023-04-24T01:11:37;1.10;;;1.00;;
25497;SDS011;13406;53.380;7.226;2023-04-24T01:14:02;1.10;;;0.70;;
25497;SDS011;13406;53.380;7.226;2023-04-24T01:16:28;1.20;;;0.70;;
25497;SDS011;13406;53.380;7.226;2023-04-24T01:18:54;1.57;;;0.60;;
25497;SDS011;13406;53.380;7.226;2023-04-24T01:21:19;0.73;;;0.60;;
25497;SDS011;13406;53.380;7.226;2023-04-24T01:23:46;0.77;;;0.60;;
25497;SDS011;13406;53.380;7.226;2023-04-24T01:26:16;3.40;;;0.70;;
25497;SDS011;13406;53.380;7.226;2023-04-24T01:28:44;2.10;;;1.10;;
25497;SDS011;13406;53.380;7.226;2023-04-24T01:31:10;1.63;;;0.70;;
25497;SDS011;13406;53.380;7.226;2023-04-24T01:33:36;0.83;;;0.70;;
25497;SDS011;13406;53.380;7.226;2023-04-24T01:36:02;0.80;;;0.63;;
25497;SDS011;13406;53.380;7.226;2023-04-24T01:38:28;1.40;;;0.80;;
25497;SDS011;13406;53.380;7.226;2023-04-24T01:40:53;0.90;;;0.70;;
25497;SDS011;13406;53.380;7.226;2023-04-24T01:43:19;0.80;;;0.70;;
25497;SDS011;13406;53.380;7.226;2023-04-24T01:45:45;0.80;;;0.67;;
25497;SDS011;13406;53.380;7.226;2023-04-24T01:48:11;0.80;;;0.70;;
25497;SDS011;13406;53.380;7.226;2023-04-24T01:50:37;0.73;;;0.70;;
25497;SDS011;13406;53.380;7.226;2023-04-24T01:53:03;0.80;;;0.80;;
25497;SDS011;13406;53.380;7.226;2023-04-24T01:55:28;1.70;;;1.00;;
25497;SDS011;13406;53.380;7.226;2023-04-24T01:57:54;1.30;;;0.90;;
25497;SDS011;13406;53.380;7.226;2023-04-24T02:00:20;2.37;;;1.43;;
25497;SDS011;13406;53.380;7.226;2023-04-24T02:02:46;0.90;;;0.90;;
25497;SDS011;13406;53.380;7.226;2023-04-24T02:05:12;1.30;;;1.20;;
25497;SDS011;13406;53.380;7.226;2023-04-24T02:07:37;1.10;;;1.00;;
25497;SDS011;13406;53.380;7.226;2023-04-24T02:10:03;1.50;;;1.20;;
25497;SDS011;13406;53.380;7.226;2023-04-24T02:12:29;1.97;;;1.10;;
25497;SDS011;13406;53.380;7.226;2023-04-24T02:14:54;2.30;;;1.20;;
25497;SDS011;13406;53.380;7.226;2023-04-24T02:17:20;1.47;;;1.10;;
25497;SDS011;13406;53.380;7.226;2023-04-24T02:19:45;1.93;;;1.20;;
25497;SDS011;13406;53.380;7.226;2023-04-24T02:22:11;1.20;;;1.10;;
25497;SDS011;13406;53.380;7.226;2023-04-24T02:24:37;1.37;;;1.10;;
25497;SDS011;13406;53.380;7.226;2023-04-24T02:27:03;2.00;;;1.30;;
25497;SDS011;13406;53.380;7.226;2023-04-24T02:29:28;2.07;;;1.00;;
25497;SDS011;13406;53.380;7.226;2023-04-24T02:31:54;1.97;;;1.40;;
25497;SDS011;13406;53.380;7.226;2023-04-24T02:34:19;2.70;;;1.43;;
25497;SDS011;13406;53.380;7.226;2023-04-24T02:36:45;1.73;;;1.47;;
25497;SDS011;13406;53.380;7.226;2023-04-24T02:39:10;2.20;;;1.23;;
25497;SDS011;13406;53.380;7.226;2023-04-24T02:41:35;1.80;;;1.00;;
25497;SDS011;13406;53.380;7.226;2023-04-24T02:44:01;2.27;;;1.50;;
25497;SDS011;13406;53.380;7.226;2023-04-24T02:46:27;1.30;;;1.13;;
25497;SDS011;13406;53.380;7.226;2023-04-24T02:48:52;2.07;;;1.80;;
25497;SDS011;13406;53.380;7.226;2023-04-24T02:51:18;6.00;;;1.60;;
25497;SDS011;13406;53.380;7.226;2023-04-24T02:53:43;5.63;;;1.50;;
25497;SDS011;13406;53.380;7.226;2023-04-24T02:56:09;2.00;;;1.77;;
25497;SDS011;13406;53.380;7.226;2023-04-24T02:58:37;1.90;;;1.60;;
25497;SDS011;13406;53.380;7.226;2023-04-24T03:01:02;1.93;;;1.67;;
25497;SDS011;13406;53.380;7.226;2023-04-24T03:03:28;3.10;;;1.80;;
25497;SDS011;13406;53.380;7.226;2023-04-24T03:05:53;1.80;;;1.70;;
25497;SDS011;13406;53.380;7.226;2023-04-24T03:08:20;2.10;;;1.90;;
25497;SDS011;13406;53.380;7.226;2023-04-24T03:10:45;6.40;;;1.93;;
25497;SDS011;13406;53.380;7.226;2023-04-24T03:13:11;1.97;;;1.73;;
25497;SDS011;13406;53.380;7.226;2023-04-24T03:15:36;2.40;;;2.20;;
25497;SDS011;13406;53.380;7.226;2023-04-24T03:18:02;2.40;;;2.00;;
25497;SDS011;13406;53.380;7.226;2023-04-24T03:20:27;2.90;;;2.30;;
25497;SDS011;13406;53.380;7.226;2023-04-24T03:22:53;2.67;;;2.47;;
25497;SDS011;13406;53.380;7.226;2023-04-24T03:25:18;2.30;;;2.10;;
25497;SDS011;13406;53.380;7.226;2023-04-24T03:27:44;2.40;;;2.20;;
25497;SDS011;13406;53.380;7.226;2023-04-24T03:30:10;1.93;;;1.83;;
25497;SDS011;13406;53.380;7.226;2023-04-24T03:32:35;2.10;;;1.90;;
25497;SDS011;13406;53.380;7.226;2023-04-24T03:35:01;2.40;;;2.20;;
25497;SDS011;13406;53.380;7.226;2023-04-24T03:37:26;3.00;;;2.80;;
25497;SDS011;13406;53.380;7.226;2023-04-24T03:39:52;4.40;;;3.63;;
25497;SDS011;13406;53.380;7.226;2023-04-24T03:42:17;3.30;;;3.10;;
25497;SDS011;13406;53.380;7.226;2023-04-24T03:44:43;3.80;;;3.50;;
25497;SDS011;13406;53.380;7.226;2023-04-24T03:47:08;4.10;;;3.70;;
25497;SDS011;13406;53.380;7.226;2023-04-24T03:49:34;3.53;;;3.23;;
25497;SDS011;13406;53.380;7.226;2023-04-24T03:51:59;4.10;;;3.70;;
25497;SDS011;13406;53.380;7.226;2023-04-24T03:54:25;3.93;;;3.63;;
25497;SDS011;13406;53.380;7.226;2023-04-24T03:56:50;4.20;;;3.90;;
25497;SDS011;13406;53.380;7.226;2023-04-24T03:59:16;4.40;;;4.00;;
25497;SDS011;13406;53.380;7.226;2023-04-24T04:01:41;4.33;;;4.00;;
25497;SDS011;13406;53.380;7.226;2023-04-24T04:04:07;4.50;;;4.20;;
25497;SDS011;13406;53.380;7.226;2023-04-24T04:06:33;3.33;;;3.03;;
25497;SDS011;13406;53.380;7.226;2023-04-24T04:08:58;4.33;;;3.17;;
25497;SDS011;13406;53.380;7.226;2023-04-24T04:11:24;3.23;;;3.03;;
25497;SDS011;13406;53.380;7.226;2023-04-24T04:13:50;3.27;;;2.97;;
25497;SDS011;13406;53.380;7.226;2023-04-24T04:16:15;3.23;;;3.03;;
25497;SDS011;13406;53.380;7.226;2023-04-24T04:18:44;3.77;;;3.47;;
25497;SDS011;13406;53.380;7.226;2023-04-24T04:21:10;3.67;;;2.67;;
25497;SDS011;13406;53.380;7.226;2023-04-24T04:23:36;3.43;;;3.13;;
25497;SDS011;13406;53.380;7.226;2023-04-24T04:26:01;3.23;;;3.03;;
25497;SDS011;13406;53.380;7.226;2023-04-24T04:28:29;5.17;;;3.40;;
25497;SDS011;13406;53.380;7.226;2023-04-24T04:30:56;3.57;;;3.20;;
25497;SDS011;13406;53.380;7.226;2023-04-24T04:33:22;3.67;;;3.37;;
25497;SDS011;13406;53.380;7.226;2023-04-24T04:35:49;4.37;;;4.07;;
25497;SDS011;13406;53.380;7.226;2023-04-24T04:38:15;4.47;;;3.90;;
25497;SDS011;13406;53.380;7.226;2023-04-24T04:40:41;4.43;;;4.03;;
25497;SDS011;13406;53.380;7.226;2023-04-24T04:43:07;4.13;;;3.83;;
25497;SDS011;13406;53.380;7.226;2023-04-24T04:45:33;4.20;;;3.90;;
25497;SDS011;13406;53.380;7.226;2023-04-24T04:47:59;3.83;;;3.53;;
25497;SDS011;13406;53.380;7.226;2023-04-24T04:50:27;4.10;;;3.33;;
25497;SDS011;13406;53.380;7.226;2023-04-24T04:52:52;3.93;;;3.63;;
25497;SDS011;13406;53.380;7.226;2023-04-24T04:55:18;4.20;;;3.90;;
25497;SDS011;13406;53.380;7.226;2023-04-24T04:57:45;4.50;;;4.10;;
25497;SDS011;13406;53.380;7.226;2023-04-24T05:00:13;4.33;;;3.93;;
25497;SDS011;13406;53.380;7.226;2023-04-24T05:02:39;4.83;;;3.97;;
25497;SDS011;13406;53.380;7.226;2023-04-24T05:05:05;4.73;;;4.30;;
25497;SDS011;13406;53.380;7.226;2023-04-24T05:07:32;4.70;;;4.30;;
25497;SDS011;13406;53.380;7.226;2023-04-24T05:09:57;5.60;;;4.90;;
25497;SDS011;13406;53.380;7.226;2023-04-24T05:12:23;5.00;;;4.10;;
25497;SDS011;13406;53.380;7.226;2023-04-24T05:14:48;4.33;;;3.93;;
25497;SDS011;13406;53.380;7.226;2023-04-24T05:17:14;4.23;;;3.90;;
25497;SDS011;13406;53.380;7.226;2023-04-24T05:19:40;4.93;;;4.43;;
25497;SDS011;13406;53.380;7.226;2023-04-24T05:22:05;4.53;;;4.13;;
25497;SDS011;13406;53.380;7.226;2023-04-24T05:24:35;5.20;;;4.10;;
25497;SDS011;13406;53.380;7.226;2023-04-24T05:27:01;7.20;;;4.20;;
25497;SDS011;13406;53.380;7.226;2023-04-24T05:29:27;5.57;;;4.37;;
25497;SDS011;13406;53.380;7.226;2023-04-24T05:31:55;4.80;;;4.40;;
25497;SDS011;13406;53.380;7.226;2023-04-24T05:34:21;5.83;;;4.03;;
25497;SDS011;13406;53.380;7.226;2023-04-24T05:36:46;5.33;;;4.43;;
25497;SDS011;13406;53.380;7.226;2023-04-24T05:39:12;6.20;;;4.43;;
25497;SDS011;13406;53.380;7.226;2023-04-24T05:41:38;4.77;;;4.33;;
25497;SDS011;13406;53.380;7.226;2023-04-24T05:44:03;4.93;;;4.53;;
25497;SDS011;13406;53.380;7.226;2023-04-24T05:46:29;4.70;;;3.40;;
25497;SDS011;13406;53.380;7.226;2023-04-24T05:48:54;6.17;;;4.00;;
25497;SDS011;13406;53.380;7.226;2023-04-24T05:51:20;4.33;;;4.03;;
25497;SDS011;13406;53.380;7.226;2023-04-24T05:53:45;4.43;;;4.03;;
25497;SDS011;13406;53.380;7.226;2023-04-24T05:56:11;4.20;;;3.03;;
25497;SDS011;13406;53.380;7.226;2023-04-24T05:58:36;4.00;;;3.70;;
25497;SDS011;13406;53.380;7.226;2023-04-24T06:01:02;4.70;;;4.07;;
25497;SDS011;13406;53.380;7.226;2023-04-24T06:03:28;3.30;;;3.03;;
25497;SDS011;13406;53.380;7.226;2023-04-24T06:05:54;4.10;;;3.80;;
25497;SDS011;13406;53.380;7.226;2023-04-24T06:08:19;4.03;;;3.63;;
25497;SDS011;13406;53.380;7.226;2023-04-24T06:10:45;3.70;;;3.40;;
25497;SDS011;13406;53.380;7.226;2023-04-24T06:13:10;4.63;;;3.47;;
25497;SDS011;13406;53.380;7.226;2023-04-24T06:15:36;4.10;;;3.80;;
25497;SDS011;13406;53.380;7.226;2023-04-24T06:18:02;4.10;;;3.80;;
25497;SDS011;13406;53.380;7.226;2023-04-24T06:20:28;3.80;;;3.50;;
25497;SDS011;13406;53.380;7.226;2023-04-24T06:22:53;3.37;;;3.07;;
25497;SDS011;13406;53.380;7.226;2023-04-24T06:25:19;3.50;;;3.23;;
25497;SDS011;13406;53.380;7.226;2023-04-24T06:27:44;5.00;;;3.43;;
25497;SDS011;13406;53.380;7.226;2023-04-24T06:30:10;2.90;;;2.70;;
25497;SDS011;13406;53.380;7.226;2023-04-24T06:32:36;3.17;;;2.93;;
25497;SDS011;13406;53.380;7.226;2023-04-24T06:35:01;3.27;;;3.03;;
25497;SDS011;13406;53.380;7.226;2023-04-24T06:37:27;3.17;;;2.87;;
25497;SDS011;13406;53.380;7.226;2023-04-24T06:39:54;3.73;;;3.23;;
25497;SDS011;13406;53.380;7.226;2023-04-24T06:42:19;2.70;;;2.50;;
25497;SDS011;13406;53.380;7.226;2023-04-24T06:44:46;2.20;;;2.00;;
25497;SDS011;13406;53.380;7.226;2023-04-24T06:47:12;2.40;;;2.10;;
25497;SDS011;13406;53.380;7.226;2023-04-24T06:49:41;4.00;;;2.30;;
25497;SDS011;13406;53.380;7.226;2023-04-24T06:52:06;2.20;;;2.00;;
25497;SDS011;13406;53.380;7.226;2023-04-24T06:54:32;2.60;;;2.30;;
25497;SDS011;13406;53.380;7.226;2023-04-24T06:56:58;2.33;;;2.13;;
25497;SDS011;13406;53.380;7.226;2023-04-24T06:59:25;2.27;;;2.07;;
25497;SDS011;13406;53.380;7.226;2023-04-24T07:01:51;2.80;;;2.60;;
25497;SDS011;13406;53.380;7.226;2023-04-24T07:04:16;2.60;;;2.40;;
25497;SDS011;13406;53.380;7.226;2023-04-24T07:06:42;2.93;;;2.23;;
25497;SDS011;13406;53.380;7.226;2023-04-24T07:09:09;2.60;;;2.07;;
25497;SDS011;13406;53.380;7.226;2023-04-24T07:11:34;2.33;;;2.03;;
25497;SDS011;13406;53.380;7.226;2023-04-24T07:14:00;2.70;;;2.50;;
25497;SDS011;13406;53.380;7.226;2023-04-24T07:16:25;3.47;;;3.17;;
25497;SDS011;13406;53.380;7.226;2023-04-24T07:18:51;2.83;;;2.63;;
25497;SDS011;13406;53.380;7.226;2023-04-24T07:21:17;1.90;;;1.80;;
25497;SDS011;13406;53.380;7.226;2023-04-24T07:23:42;2.40;;;2.20;;
25497;SDS011;13406;53.380;7.226;2023-04-24T07:26:08;2.00;;;1.90;;
25497;SDS011;13406;53.380;7.226;2023-04-24T07:28:33;2.37;;;2.17;;
25497;SDS011;13406;53.380;7.226;2023-04-24T07:30:59;2.27;;;1.80;;
25497;SDS011;13406;53.380;7.226;2023-04-24T07:33:25;2.20;;;2.00;;
25497;SDS011;13406;53.380;7.226;2023-04-24T07:35:51;2.00;;;1.80;;
25497;SDS011;13406;53.380;7.226;2023-04-24T07:38:17;2.30;;;2.10;;
25497;SDS011;13406;53.380;7.226;2023-04-24T07:40:45;2.30;;;2.10;;
25497;SDS011;13406;53.380;7.226;2023-04-24T07:43:10;2.47;;;2.27;;
25497;SDS011;13406;53.380;7.226;2023-04-24T07:45:36;2.50;;;2.07;;
25497;SDS011;13406;53.380;7.226;2023-04-24T07:48:02;2.40;;;2.20;;
25497;SDS011;13406;53.380;7.226;2023-04-24T07:50:28;2.03;;;1.70;;
25497;SDS011;13406;53.380;7.226;2023-04-24T07:52:53;2.30;;;2.10;;
25497;SDS011;13406;53.380;7.226;2023-04-24T07:55:19;2.17;;;1.97;;
25497;SDS011;13406;53.380;7.226;2023-04-24T07:57:44;2.90;;;1.63;;
25497;SDS011;13406;53.380;7.226;2023-04-24T08:00:10;2.90;;;2.40;;
25497;SDS011;13406;53.380;7.226;2023-04-24T08:02:36;3.67;;;3.20;;
25497;SDS011;13406;53.380;7.226;2023-04-24T08:05:01;4.33;;;3.33;;
25497;SDS011;13406;53.380;7.226;2023-04-24T08:07:28;3.23;;;2.77;;
25497;SDS011;13406;53.380;7.226;2023-04-24T08:09:54;3.47;;;2.60;;
25497;SDS011;13406;53.380;7.226;2023-04-24T08:12:20;3.80;;;2.27;;
25497;SDS011;13406;53.380;7.226;2023-04-24T08:14:45;3.30;;;2.20;;
25497;SDS011;13406;53.380;7.226;2023-04-24T08:17:11;2.80;;;2.00;;
25497;SDS011;13406;53.380;7.226;2023-04-24T08:19:36;3.17;;;2.07;;
25497;SDS011;13406;53.380;7.226;2023-04-24T08:22:01;3.60;;;2.30;;
25497;SDS011;13406;53.380;7.226;2023-04-24T08:24:29;2.63;;;1.70;;
25497;SDS011;13406;53.380;7.226;2023-04-24T08:26:54;3.67;;;1.53;;
25497;SDS011;13406;53.380;7.226;2023-04-24T08:29:21;3.10;;;1.27;;
25497;SDS011;13406;53.380;7.226;2023-04-24T08:31:47;2.87;;;1.40;;
25497;SDS011;13406;53.380;7.226;2023-04-24T08:34:12;4.27;;;1.10;;
25497;SDS011;13406;53.380;7.226;2023-04-24T08:36:38;1.43;;;1.00;;
25497;SDS011;13406;53.380;7.226;2023-04-24T08:39:05;1.40;;;0.90;;
25497;SDS011;13406;53.380;7.226;2023-04-24T08:41:31;1.87;;;1.37;;
25497;SDS011;13406;53.380;7.226;2023-04-24T08:43:59;2.93;;;1.90;;
25497;SDS011;13406;53.380;7.226;2023-04-24T08:46:27;2.60;;;1.37;;
25497;SDS011;13406;53.380;7.226;2023-04-24T08:48:54;3.43;;;1.60;;
25497;SDS011;13406;53.380;7.226;2023-04-24T08:51:21;1.97;;;1.10;;
25497;SDS011;13406;53.380;7.226;2023-04-24T08:53:48;2.80;;;1.30;;
25497;SDS011;13406;53.380;7.226;2023-04-24T08:56:13;2.50;;;1.10;;
25497;SDS011;13406;53.380;7.226;2023-04-24T08:58:39;3.13;;;1.40;;
25497;SDS011;13406;53.380;7.226;2023-04-24T09:01:05;2.37;;;1.20;;
25497;SDS011;13406;53.380;7.226;2023-04-24T09:03:32;2.50;;;1.17;;
25497;SDS011;13406;53.380;7.226;2023-04-24T09:05:58;3.10;;;1.10;;
25497;SDS011;13406;53.380;7.226;2023-04-24T09:08:25;5.63;;;1.30;;
25497;SDS011;13406;53.380;7.226;2023-04-24T09:10:51;4.37;;;1.57;;
25497;SDS011;13406;53.380;7.226;2023-04-24T09:13:17;4.30;;;1.40;;
25497;SDS011;13406;53.380;7.226;2023-04-24T09:15:44;3.00;;;1.83;;
25497;SDS011;13406;53.380;7.226;2023-04-24T09:18:10;2.97;;;2.00;;
25497;SDS011;13406;53.380;7.226;2023-04-24T09:20:56;4.50;;;2.77;;
25497;SDS011;13406;53.380;7.226;2023-04-24T09:23:33;5.43;;;2.27;;
25497;SDS011;13406;53.380;7.226;2023-04-24T09:25:59;5.20;;;2.90;;
25497;SDS011;13406;53.380;7.226;2023-04-24T09:28:26;4.83;;;2.87;;
25497;SDS011;13406;53.380;7.226;2023-04-24T09:31:02;5.30;;;3.00;;
25497;SDS011;13406;53.380;7.226;2023-04-24T09:33:33;6.57;;;3.63;;
25497;SDS011;13406;53.380;7.226;2023-04-24T09:35:58;8.23;;;3.47;;
25497;SDS011;13406;53.380;7.226;2023-04-24T09:38:30;4.80;;;4.20;;
25497;SDS011;13406;53.380;7.226;2023-04-24T09:40:58;8.30;;;6.17;;
25497;SDS011;13406;53.380;7.226;2023-04-24T09:43:26;10.63;;;6.30;;
25497;SDS011;13406;53.380;7.226;2023-04-24T09:45:52;12.83;;;8.83;;
25497;SDS011;13406;53.380;7.226;2023-04-24T09:48:29;11.97;;;8.40;;
25497;SDS011;13406;53.380;7.226;2023-04-24T09:50:56;12.67;;;9.47;;
25497;SDS011;13406;53.380;7.226;2023-04-24T09:53:24;12.70;;;9.20;;
25497;SDS011;13406;53.380;7.226;2023-04-24T09:55:51;12.20;;;10.23;;
25497;SDS011;13406;53.380;7.226;2023-04-24T09:58:18;12.23;;;10.53;;
25497;SDS011;13406;53.380;7.226;2023-04-24T10:00:49;18.50;;;11.83;;
25497;SDS011;13406;53.380;7.226;2023-04-24T10:03:18;15.00;;;9.80;;
25497;SDS011;13406;53.380;7.226;2023-04-24T10:05:44;16.07;;;10.40;;
25497;SDS011;13406;53.380;7.226;2023-04-24T10:08:11;16.67;;;9.93;;
25497;SDS011;13406;53.380;7.226;2023-04-24T10:10:38;19.57;;;10.87;;
25497;SDS011;13406;53.380;7.226;2023-04-24T10:13:06;17.10;;;10.37;;
25497;SDS011;13406;53.380;7.226;2023-04-24T10:15:32;12.77;;;9.37;;
25497;SDS011;13406;53.380;7.226;2023-04-24T10:17:58;15.70;;;8.43;;
25497;SDS011;13406;53.380;7.226;2023-04-24T10:20:25;13.40;;;8.50;;
25497;SDS011;13406;53.380;7.226;2023-04-24T10:22:52;12.00;;;6.90;;
25497;SDS011;13406;53.380;7.226;2023-04-24T10:25:23;10.07;;;6.97;;
25497;SDS011;13406;53.380;7.226;2023-04-24T10:27:51;14.90;;;8.27;;
25497;SDS011;13406;53.380;7.226;2023-04-24T10:30:18;9.33;;;8.20;;
25497;SDS011;13406;53.380;7.226;2023-04-24T10:32:45;9.93;;;6.80;;
25497;SDS011;13406;53.380;7.226;2023-04-24T10:35:14;12.37;;;6.30;;
25497;SDS011;13406;53.380;7.226;2023-04-24T10:37:44;11.20;;;6.00;;
25497;SDS011;13406;53.380;7.226;2023-04-24T10:40:31;8.20;;;5.07;;
25497;SDS011;13406;53.380;7.226;2023-04-24T10:42:58;7.30;;;4.63;;
25497;SDS011;13406;53.380;7.226;2023-04-24T10:45:24;7.20;;;4.90;;
25497;SDS011;13406;53.380;7.226;2023-04-24T10:50:47;9.57;;;5.00;;
25497;SDS011;13406;53.380;7.226;2023-04-24T10:53:22;7.73;;;4.47;;
25497;SDS011;13406;53.380;7.226;2023-04-24T10:56:08;7.63;;;4.13;;
25497;SDS011;13406;53.380;7.226;2023-04-24T11:01:05;8.90;;;4.33;;
25497;SDS011;13406;53.380;7.226;2023-04-24T11:03:31;13.07;;;5.63;;
25497;SDS011;13406;53.380;7.226;2023-04-24T11:06:02;12.43;;;4.13;;
25497;SDS011;13406;53.380;7.226;2023-04-24T11:18:51;19.87;;;4.77;;
25497;SDS011;13406;53.380;7.226;2023-04-24T11:21:25;11.33;;;4.70;;
25497;SDS011;13406;53.380;7.226;2023-04-24T11:23:51;9.87;;;4.30;;
25497;SDS011;13406;53.380;7.226;2023-04-24T11:26:18;11.83;;;4.53;;
25497;SDS011;13406;53.380;7.226;2023-04-24T11:28:46;11.23;;;3.90;;
25497;SDS011;13406;53.380;7.226;2023-04-24T11:34:10;8.40;;;3.60;;
25497;SDS011;13406;53.380;7.226;2023-04-24T11:36:40;11.53;;;4.10;;
25497;SDS011;13406;53.380;7.226;2023-04-24T11:39:08;10.57;;;3.90;;
25497;SDS011;13406;53.380;7.226;2023-04-24T11:41:35;9.30;;;3.00;;
25497;SDS011;13406;53.380;7.226;2023-04-24T11:44:00;9.50;;;3.70;;
25497;SDS011;13406;53.380;7.226;2023-04-24T11:46:28;8.10;;;3.10;;
25497;SDS011;13406;53.380;7.226;2023-04-24T11:48:55;8.37;;;3.47;;
25497;SDS011;13406;53.380;7.226;2023-04-24T11:51:22;9.20;;;3.50;;
25497;SDS011;13406;53.380;7.226;2023-04-24T11:53:48;10.57;;;3.50;;
25497;SDS011;13406;53.380;7.226;2023-04-24T11:56:17;11.83;;;3.57;;
25497;SDS011;13406;53.380;7.226;2023-04-24T11:58:44;7.67;;;3.67;;
25497;SDS011;13406;53.380;7.226;2023-04-24T12:01:11;9.43;;;3.30;;
25497;SDS011;13406;53.380;7.226;2023-04-24T12:03:36;10.57;;;3.60;;
25497;SDS011;13406;53.380;7.226;2023-04-24T12:06:08;10.97;;;3.83;;
25497;SDS011;13406;53.380;7.226;2023-04-24T12:08:35;10.63;;;3.80;;
25497;SDS011;13406;53.380;7.226;2023-04-24T12:11:02;8.00;;;3.40;;
25497;SDS011;13406;53.380;7.226;2023-04-24T12:13:29;8.00;;;2.97;;
25497;SDS011;13406;53.380;7.226;2023-04-24T12:15:56;8.30;;;3.17;;
25497;SDS011;13406;53.380;7.226;2023-04-24T12:18:22;9.83;;;3.10;;
25497;SDS011;13406;53.380;7.226;2023-04-24T12:20:48;7.90;;;3.30;;
25497;SDS011;13406;53.380;7.226;2023-04-24T12:23:14;4.97;;;2.30;;
25497;SDS011;13406;53.380;7.226;2023-04-24T12:25:40;7.47;;;2.10;;
25497;SDS011;13406;53.380;7.226;2023-04-24T12:30:32;9.43;;;2.87;;
25497;SDS011;13406;53.380;7.226;2023-04-24T12:33:04;7.40;;;3.70;;
25497;SDS011;13406;53.380;7.226;2023-04-24T12:35:30;7.90;;;2.70;;
25497;SDS011;13406;53.380;7.226;2023-04-24T12:40:40;7.63;;;2.40;;
25497;SDS011;13406;53.380;7.226;2023-04-24T12:43:18;12.30;;;2.23;;
25497;SDS011;13406;53.380;7.226;2023-04-24T12:45:45;10.87;;;2.03;;
25497;SDS011;13406;53.380;7.226;2023-04-24T12:48:11;7.53;;;2.30;;
25497;SDS011;13406;53.380;7.226;2023-04-24T12:50:37;7.73;;;2.20;;
25497;SDS011;13406;53.380;7.226;2023-04-24T12:53:03;6.17;;;2.30;;
25497;SDS011;13406;53.380;7.226;2023-04-24T12:55:29;11.70;;;1.67;;
25497;SDS011;13406;53.380;7.226;2023-04-24T12:57:54;5.23;;;1.73;;
25497;SDS011;13406;53.380;7.226;2023-04-24T13:00:21;10.80;;;1.60;;
25497;SDS011;13406;53.380;7.226;2023-04-24T13:02:46;4.77;;;1.47;;
25497;SDS011;13406;53.380;7.226;2023-04-24T13:05:12;5.80;;;1.73;;
25497;SDS011;13406;53.380;7.226;2023-04-24T13:07:38;5.77;;;1.70;;
25497;SDS011;13406;53.380;7.226;2023-04-24T13:10:04;5.67;;;1.23;;
25497;SDS011;13406;53.380;7.226;2023-04-24T13:12:31;11.60;;;3.03;;
25497;SDS011;13406;53.380;7.226;2023-04-24T13:14:57;4.90;;;1.60;;
25497;SDS011;13406;53.380;7.226;2023-04-24T13:17:23;12.30;;;2.20;;
25497;SDS011;13406;53.380;7.226;2023-04-24T13:19:49;7.83;;;2.30;;
25497;SDS011;13406;53.380;7.226;2023-04-24T13:22:16;7.47;;;1.90;;
25497;SDS011;13406;53.380;7.226;2023-04-24T13:24:43;7.13;;;1.30;;
25497;SDS011;13406;53.380;7.226;2023-04-24T13:27:09;6.10;;;1.40;;
25497;SDS011;13406;53.380;7.226;2023-04-24T13:29:36;5.70;;;1.70;;
25497;SDS011;13406;53.380;7.226;2023-04-24T13:32:02;5.67;;;1.40;;
25497;SDS011;13406;53.380;7.226;2023-04-24T13:34:28;5.70;;;1.43;;
25497;SDS011;13406;53.380;7.226;2023-04-24T13:36:54;10.60;;;1.93;;
25497;SDS011;13406;53.380;7.226;2023-04-24T13:39:21;8.67;;;1.70;;
25497;SDS011;13406;53.380;7.226;2023-04-24T13:41:47;5.43;;;1.70;;
25497;SDS011;13406;53.380;7.226;2023-04-24T13:44:13;4.83;;;1.30;;
25497;SDS011;13406;53.380;7.226;2023-04-24T13:46:39;4.70;;;1.60;;
25497;SDS011;13406;53.380;7.226;2023-04-24T13:49:05;7.53;;;1.50;;
25497;SDS011;13406;53.380;7.226;2023-04-24T13:51:30;7.33;;;1.50;;
25497;SDS011;13406;53.380;7.226;2023-04-24T13:53:56;5.17;;;1.50;;
25497;SDS011;13406;53.380;7.226;2023-04-24T13:56:21;2.87;;;1.13;;
25497;SDS011;13406;53.380;7.226;2023-04-24T13:58:47;5.77;;;1.53;;
25497;SDS011;13406;53.380;7.226;2023-04-24T14:01:13;6.50;;;1.23;;
25497;SDS011;13406;53.380;7.226;2023-04-24T14:03:40;4.73;;;1.33;;
25497;SDS011;13406;53.380;7.226;2023-04-24T14:06:06;5.07;;;1.00;;
25497;SDS011;13406;53.380;7.226;2023-04-24T14:08:32;3.70;;;1.10;;
25497;SDS011;13406;53.380;7.226;2023-04-24T14:10:57;4.77;;;1.43;;
25497;SDS011;13406;53.380;7.226;2023-04-24T14:13:23;11.77;;;1.60;;
25497;SDS011;13406;53.380;7.226;2023-04-24T14:15:49;5.80;;;1.50;;
25497;SDS011;13406;53.380;7.226;2023-04-24T14:18:14;4.43;;;1.40;;
25497;SDS011;13406;53.380;7.226;2023-04-24T14:20:40;10.07;;;1.57;;
25497;SDS011;13406;53.380;7.226;2023-04-24T14:23:05;3.57;;;0.90;;
25497;SDS011;13406;53.380;7.226;2023-04-24T14:25:30;4.17;;;1.70;;
25497;SDS011;13406;53.380;7.226;2023-04-24T14:27:56;4.50;;;1.20;;
25497;SDS011;13406;53.380;7.226;2023-04-24T14:30:21;6.30;;;1.40;;
25497;SDS011;13406;53.380;7.226;2023-04-24T14:32:48;5.70;;;1.23;;
25497;SDS011;13406;53.380;7.226;2023-04-24T14:35:13;4.67;;;1.33;;
25497;SDS011;13406;53.380;7.226;2023-04-24T14:37:39;5.20;;;1.33;;
25497;SDS011;13406;53.380;7.226;2023-04-24T14:40:06;8.13;;;1.20;;
25497;SDS011;13406;53.380;7.226;2023-04-24T14:42:34;7.33;;;1.37;;
25497;SDS011;13406;53.380;7.226;2023-04-24T14:45:00;6.43;;;1.57;;
25497;SDS011;13406;53.380;7.226;2023-04-24T14:47:26;5.70;;;1.30;;
25497;SDS011;13406;53.380;7.226;2023-04-24T14:49:51;8.07;;;1.43;;
25497;SDS011;13406;53.380;7.226;2023-04-24T14:52:17;6.53;;;1.63;;
25497;SDS011;13406;53.380;7.226;2023-04-24T14:54:43;5.10;;;1.20;;
25497;SDS011;13406;53.380;7.226;2023-04-24T14:57:08;3.87;;;1.20;;
25497;SDS011;13406;53.380;7.226;2023-04-24T14:59:34;2.80;;;1.10;;
25497;SDS011;13406;53.380;7.226;2023-04-24T15:02:00;5.63;;;1.10;;
25497;SDS011;13406;53.380;7.226;2023-04-24T15:04:26;3.27;;;0.83;;